Wetterdaten: aktuell Donnerstag, 17.10.2019 11:00
Datum Zeit Temp. A. Feuchte A. Luftdruck Regen Wind Sonnenschein UV Solar Windchill Empfang
17.10.2019 11:00 11,3 °C 87 % 1019,0 hPa 0,0 l/m² 0,0 km/h 10 min 1,9 UV-I 376 W/m² 11,3 °C 100 %
17.10.2019 10:50 10,6 °C 90 % 1019,1 hPa 0,0 l/m² 0,0 km/h 10 min 1,7 UV-I 339 W/m² 10,6 °C 100 %
17.10.2019 10:40 10,1 °C 92 % 1019,0 hPa 0,0 l/m² 0,0 km/h 10 min 1,7 UV-I 349 W/m² 10,1 °C 100 %
17.10.2019 10:30 9,4 °C 93 % 1019,0 hPa 0,0 l/m² 0,1 km/h 10 min 1,4 UV-I 246 W/m² 9,4 °C 100 %
17.10.2019 10:20 9,2 °C 95 % 1019,0 hPa 0,0 l/m² 0,1 km/h 10 min 1,4 UV-I 312 W/m² 9,2 °C 100 %
17.10.2019 10:10 8,5 °C 96 % 1019,0 hPa 0,0 l/m² 1,2 km/h 10 min 1,2 UV-I 276 W/m² 8,5 °C 99 %
17.10.2019 10:00 8,2 °C 97 % 1019,0 hPa 0,0 l/m² 0,0 km/h 10 min 1,1 UV-I 264 W/m² 8,2 °C 100 %
17.10.2019 09:50 7,8 °C 97 % 1019,1 hPa 0,0 l/m² 0,0 km/h 10 min 1,0 UV-I 213 W/m² 7,8 °C 99 %
17.10.2019 09:40 7,2 °C 97 % 1019,0 hPa 0,0 l/m² 0,0 km/h 10 min 0,9 UV-I 190 W/m² 7,2 °C 91 %
17.10.2019 09:30 6,7 °C 97 % 1019,0 hPa 0,0 l/m² 0,0 km/h 10 min 0,7 UV-I 103 W/m² 6,7 °C 100 %
17.10.2019 09:20 6,3 °C 97 % 1019,0 hPa 0,0 l/m² 0,0 km/h 10 min 0,7 UV-I 128 W/m² 6,3 °C 100 %
17.10.2019 09:10 6,1 °C 97 % 1018,9 hPa 0,0 l/m² 0,0 km/h 0 min 0,6 UV-I 99 W/m² 6,1 °C 100 %
17.10.2019 09:00 5,9 °C 97 % 1018,8 hPa 0,0 l/m² 0,0 km/h 0 min 0,5 UV-I 97 W/m² 5,9 °C 100 %
17.10.2019 08:50 5,4 °C 97 % 1018,7 hPa 0,0 l/m² 0,0 km/h 0 min 0,5 UV-I 94 W/m² 5,4 °C 99 %
17.10.2019 08:40 4,9 °C 96 % 1018,7 hPa 0,0 l/m² 0,0 km/h 0 min 0,0 UV-I 49 W/m² 4,9 °C 100 %
17.10.2019 08:30 4,8 °C 96 % 1018,7 hPa 0,0 l/m² 0,0 km/h 0 min 0,0 UV-I 38 W/m² 4,8 °C 100 %
17.10.2019 08:20 4,8 °C 96 % 1018,6 hPa 0,0 l/m² 0,0 km/h 0 min 0,0 UV-I 33 W/m² 4,8 °C 100 %
17.10.2019 08:10 4,8 °C 96 % 1018,5 hPa 0,0 l/m² 0,0 km/h 0 min 0,0 UV-I 37 W/m² 4,8 °C 99 %
17.10.2019 08:00 4,3 °C 96 % 1018,5 hPa 0,0 l/m² 0,0 km/h 0 min 0,0 UV-I 24 W/m² 4,3 °C 100 %
17.10.2019 07:50 4,2 °C 96 % 1018,3 hPa 0,2 l/m² 0,5 km/h 0 min 0,0 UV-I 14 W/m² 4,2 °C 99 %
17.10.2019 07:40 4,1 °C 96 % 1018,3 hPa 0,0 l/m² 0,0 km/h 0 min 0,0 UV-I 8 W/m² 4,1 °C 99 %
17.10.2019 07:30 4,1 °C 96 % 1018,0 hPa 0,0 l/m² 0,0 km/h 0 min 0,0 UV-I 5 W/m² 4,1 °C 100 %
17.10.2019 07:20 4,0 °C 96 % 1017,9 hPa 0,0 l/m² 0,0 km/h 0 min 0,0 UV-I 0 W/m² 4,0 °C 100 %
17.10.2019 07:10 3,9 °C 96 % 1017,9 hPa 0,0 l/m² 0,0 km/h 0 min 0,0 UV-I 0 W/m² 3,9 °C 100 %
17.10.2019 07:00 3,9 °C 96 % 1017,8 hPa 0,0 l/m² 0,0 km/h 0 min 0,0 UV-I 0 W/m² 3,9 °C 100 %
17.10.2019 06:50 3,9 °C 96 % 1017,6 hPa 0,0 l/m² 0,0 km/h 0 min 0,0 UV-I 0 W/m² 3,9 °C 100 %
17.10.2019 06:40 3,9 °C 96 % 1017,4 hPa 0,0 l/m² 0,0 km/h 0 min 0,0 UV-I 0 W/m² 3,9 °C 100 %
17.10.2019 06:30 4,0 °C 96 % 1017,3 hPa 0,0 l/m² 0,0 km/h 0 min 0,0 UV-I 0 W/m² 4,0 °C 100 %
17.10.2019 06:20 4,1 °C 96 % 1017,2 hPa 0,0 l/m² 0,0 km/h 0 min 0,0 UV-I 0 W/m² 4,1 °C 100 %
17.10.2019 06:10 4,0 °C 96 % 1017,4 hPa 0,0 l/m² 0,0 km/h 0 min 0,0 UV-I 0 W/m² 4,0 °C 99 %
17.10.2019 06:00 4,1 °C 95 % 1017,4 hPa 0,0 l/m² 0,0 km/h 0 min 0,0 UV-I 0 W/m² 4,1 °C 100 %
17.10.2019 05:50 4,2 °C 96 % 1017,4 hPa 0,0 l/m² 0,0 km/h 0 min 0,0 UV-I 0 W/m² 4,2 °C 100 %
17.10.2019 05:40 4,2 °C 96 % 1017,4 hPa 0,0 l/m² 0,0 km/h 0 min 0,0 UV-I 0 W/m² 4,2 °C 100 %
17.10.2019 05:30 4,3 °C 96 % 1017,4 hPa 0,0 l/m² 0,0 km/h 0 min 0,0 UV-I 0 W/m² 4,3 °C 100 %
17.10.2019 05:20 4,3 °C 96 % 1017,4 hPa 0,0 l/m² 0,0 km/h 0 min 0,0 UV-I 0 W/m² 4,3 °C 100 %
17.10.2019 05:10 4,3 °C 96 % 1017,3 hPa 0,0 l/m² 0,0 km/h 0 min 0,0 UV-I 0 W/m² 4,3 °C 100 %
17.10.2019 05:00 4,3 °C 95 % 1017,3 hPa 0,0 l/m² 0,0 km/h 0 min 0,0 UV-I 0 W/m² 4,3 °C 99 %
17.10.2019 04:50 4,4 °C 96 % 1017,4 hPa 0,0 l/m² 0,0 km/h 0 min 0,0 UV-I 0 W/m² 4,4 °C 100 %
17.10.2019 04:40 4,4 °C 95 % 1017,3 hPa 0,0 l/m² 0,0 km/h 0 min 0,0 UV-I 0 W/m² 4,4 °C 100 %
17.10.2019 04:30 4,6 °C 95 % 1017,4 hPa 0,0 l/m² 0,0 km/h 0 min 0,0 UV-I 0 W/m² 4,6 °C 100 %
17.10.2019 04:20 4,7 °C 95 % 1017,4 hPa 0,0 l/m² 0,0 km/h 0 min 0,0 UV-I 0 W/m² 4,7 °C 100 %
17.10.2019 04:10 4,8 °C 95 % 1017,4 hPa 0,0 l/m² 0,0 km/h 0 min 0,0 UV-I 0 W/m² 4,8 °C 100 %
17.10.2019 04:00 4,9 °C 95 % 1017,5 hPa 0,0 l/m² 0,0 km/h 0 min 0,0 UV-I 0 W/m² 4,9 °C 100 %
17.10.2019 03:50 4,9 °C 95 % 1017,3 hPa 0,0 l/m² 0,0 km/h 0 min 0,0 UV-I 0 W/m² 4,9 °C 100 %
17.10.2019 03:40 4,9 °C 95 % 1017,4 hPa 0,0 l/m² 0,0 km/h 0 min 0,0 UV-I 0 W/m² 4,9 °C 100 %
17.10.2019 03:30 4,8 °C 95 % 1017,3 hPa 0,0 l/m² 0,0 km/h 0 min 0,0 UV-I 0 W/m² 4,8 °C 99 %
17.10.2019 03:20 4,9 °C 95 % 1017,3 hPa 0,0 l/m² 0,0 km/h 0 min 0,0 UV-I 0 W/m² 4,9 °C 100 %
17.10.2019 03:10 5,0 °C 95 % 1017,2 hPa 0,0 l/m² 0,0 km/h 0 min 0,0 UV-I 0 W/m² 5,0 °C 99 %
17.10.2019 03:00 5,1 °C 95 % 1017,2 hPa 0,0 l/m² 0,0 km/h 0 min 0,0 UV-I 0 W/m² 5,1 °C 99 %
17.10.2019 02:51 5,0 °C 95 % 1017,2 hPa 0,0 l/m² 0,0 km/h 0 min 0,0 UV-I 0 W/m² 5,0 °C 100 %
17.10.2019 02:30 5,1 °C 95 % 1017,4 hPa 0,0 l/m² 0,0 km/h 0 min 0,0 UV-I 0 W/m² 5,1 °C 100 %
17.10.2019 02:20 5,1 °C 95 % 1017,4 hPa 0,0 l/m² 0,0 km/h 0 min 0,0 UV-I 0 W/m² 5,1 °C 100 %
17.10.2019 02:10 5,1 °C 95 % 1017,4 hPa 0,0 l/m² 0,0 km/h 0 min 0,0 UV-I 0 W/m² 5,1 °C 99 %
17.10.2019 02:00 5,2 °C 95 % 1017,4 hPa 0,0 l/m² 0,0 km/h 0 min 0,0 UV-I 0 W/m² 5,2 °C 99 %
17.10.2019 01:50 5,4 °C 95 % 1017,3 hPa 0,0 l/m² 0,0 km/h 0 min 0,0 UV-I 0 W/m² 5,4 °C 91 %
17.10.2019 01:40 5,5 °C 95 % 1017,3 hPa 0,0 l/m² 0,0 km/h 0 min 0,0 UV-I 0 W/m² 5,5 °C 100 %
17.10.2019 01:30 5,6 °C 95 % 1017,4 hPa 0,0 l/m² 0,0 km/h 0 min 0,0 UV-I 0 W/m² 5,6 °C 100 %
17.10.2019 01:20 5,6 °C 95 % 1017,4 hPa 0,0 l/m² 0,0 km/h 0 min 0,0 UV-I 0 W/m² 5,6 °C 100 %
17.10.2019 01:10 5,7 °C 95 % 1017,4 hPa 0,0 l/m² 0,0 km/h 0 min 0,0 UV-I 0 W/m² 5,7 °C 100 %
17.10.2019 01:00 5,7 °C 94 % 1017,4 hPa 0,0 l/m² 0,0 km/h 0 min 0,0 UV-I 0 W/m² 5,7 °C 100 %
17.10.2019 00:50 5,8 °C 94 % 1017,4 hPa 0,0 l/m² 0,0 km/h 0 min 0,0 UV-I 0 W/m² 5,8 °C 100 %
17.10.2019 00:40 5,9 °C 94 % 1017,4 hPa 0,0 l/m² 0,0 km/h 0 min 0,0 UV-I 0 W/m² 5,9 °C 99 %
17.10.2019 00:30 5,9 °C 94 % 1017,4 hPa 0,0 l/m² 0,0 km/h 0 min 0,0 UV-I 0 W/m² 5,9 °C 100 %
17.10.2019 00:20 6,0 °C 94 % 1017,4 hPa 0,0 l/m² 0,0 km/h 0 min 0,0 UV-I 0 W/m² 6,0 °C 100 %
17.10.2019 00:10 6,1 °C 94 % 1017,4 hPa 0,0 l/m² 0,0 km/h 0 min 0,0 UV-I 0 W/m² 6,1 °C 100 %
17.10.2019 00:00 6,2 °C 94 % 1017,4 hPa 0,0 l/m² 0,0 km/h 0 min 0,0 UV-I 0 W/m² 6,2 °C 100 %
16.10.2019 23:50 6,4 °C 94 % 1017,3 hPa 0,0 l/m² 0,0 km/h 0 min 0,0 UV-I 0 W/m² 6,4 °C 99 %
16.10.2019 23:40 6,5 °C 94 % 1017,4 hPa 0,0 l/m² 0,0 km/h 0 min 0,0 UV-I 0 W/m² 6,5 °C 100 %
16.10.2019 23:30 6,4 °C 94 % 1017,4 hPa 0,0 l/m² 0,0 km/h 0 min 0,0 UV-I 0 W/m² 6,4 °C 100 %
16.10.2019 23:20 6,6 °C 93 % 1017,4 hPa 0,0 l/m² 0,0 km/h 0 min 0,0 UV-I 0 W/m² 6,6 °C 100 %
16.10.2019 23:10 6,7 °C 93 % 1017,5 hPa 0,0 l/m² 0,0 km/h 0 min 0,0 UV-I 0 W/m² 6,7 °C 98 %
16.10.2019 23:00 6,8 °C 93 % 1017,5 hPa 0,0 l/m² 0,0 km/h 0 min 0,0 UV-I 0 W/m² 6,8 °C 100 %
16.10.2019 22:50 6,8 °C 93 % 1017,6 hPa 0,0 l/m² 0,0 km/h 0 min 0,0 UV-I 0 W/m² 6,8 °C 100 %
16.10.2019 22:40 7,1 °C 93 % 1017,5 hPa 0,0 l/m² 0,0 km/h 0 min 0,0 UV-I 0 W/m² 7,1 °C 91 %
16.10.2019 22:30 7,2 °C 92 % 1017,5 hPa 0,0 l/m² 0,0 km/h 0 min 0,0 UV-I 0 W/m² 7,2 °C 100 %
16.10.2019 22:20 7,2 °C 92 % 1017,6 hPa 0,0 l/m² 0,0 km/h 0 min 0,0 UV-I 0 W/m² 7,2 °C 100 %
16.10.2019 22:10 7,3 °C 92 % 1017,5 hPa 0,0 l/m² 0,0 km/h 0 min 0,0 UV-I 0 W/m² 7,3 °C 100 %
16.10.2019 22:00 7,4 °C 91 % 1017,6 hPa 0,0 l/m² 0,0 km/h 0 min 0,0 UV-I 0 W/m² 7,4 °C 100 %
16.10.2019 21:50 7,6 °C 91 % 1017,5 hPa 0,0 l/m² 0,0 km/h 0 min 0,0 UV-I 0 W/m² 7,6 °C 100 %
16.10.2019 21:40 7,8 °C 91 % 1017,5 hPa 0,0 l/m² 0,0 km/h 0 min 0,0 UV-I 0 W/m² 7,8 °C 99 %
16.10.2019 21:30 7,9 °C 91 % 1017,5 hPa 0,0 l/m² 0,0 km/h 0 min 0,0 UV-I 0 W/m² 7,9 °C 100 %
16.10.2019 21:20 8,2 °C 91 % 1017,4 hPa 0,0 l/m² 0,0 km/h 0 min 0,0 UV-I 0 W/m² 8,2 °C 100 %
16.10.2019 21:10 8,3 °C 90 % 1017,3 hPa 0,0 l/m² 0,0 km/h 0 min 0,0 UV-I 0 W/m² 8,3 °C 99 %
16.10.2019 21:00 8,6 °C 90 % 1017,3 hPa 0,0 l/m² 0,0 km/h 0 min 0,0 UV-I 0 W/m² 8,6 °C 100 %
16.10.2019 20:50 8,8 °C 89 % 1017,2 hPa 0,0 l/m² 0,0 km/h 0 min 0,0 UV-I 0 W/m² 8,8 °C 99 %
16.10.2019 20:40 9,0 °C 89 % 1017,3 hPa 0,0 l/m² 0,0 km/h 0 min 0,0 UV-I 0 W/m² 9,0 °C 100 %
16.10.2019 20:30 9,2 °C 87 % 1017,2 hPa 0,0 l/m² 0,0 km/h 0 min 0,0 UV-I 0 W/m² 9,2 °C 100 %
16.10.2019 20:20 9,5 °C 87 % 1017,2 hPa 0,0 l/m² 0,0 km/h 0 min 0,0 UV-I 0 W/m² 9,5 °C 100 %
16.10.2019 20:10 9,8 °C 86 % 1017,3 hPa 0,0 l/m² 0,0 km/h 0 min 0,0 UV-I 0 W/m² 9,8 °C 100 %
16.10.2019 20:00 9,9 °C 86 % 1017,3 hPa 0,0 l/m² 0,0 km/h 0 min 0,0 UV-I 0 W/m² 9,9 °C 100 %
16.10.2019 19:50 10,2 °C 86 % 1017,3 hPa 0,0 l/m² 0,0 km/h 0 min 0,0 UV-I 0 W/m² 10,2 °C 100 %
16.10.2019 19:40 10,4 °C 86 % 1017,1 hPa 0,0 l/m² 0,0 km/h 0 min 0,0 UV-I 0 W/m² 10,4 °C 100 %
16.10.2019 19:30 10,6 °C 84 % 1017,1 hPa 0,0 l/m² 0,1 km/h 0 min 0,0 UV-I 0 W/m² 10,6 °C 99 %
16.10.2019 19:20 11,4 °C 81 % 1017,1 hPa 0,0 l/m² 0,0 km/h 0 min 0,0 UV-I 0 W/m² 11,4 °C 100 %
16.10.2019 19:10 12,2 °C 78 % 1017,2 hPa 0,0 l/m² 0,0 km/h 0 min 0,0 UV-I 0 W/m² 12,2 °C 100 %
16.10.2019 19:00 12,8 °C 77 % 1017,0 hPa 0,0 l/m² 0,0 km/h 0 min 0,0 UV-I 0 W/m² 12,8 °C 99 %
16.10.2019 18:50 13,3 °C 76 % 1017,0 hPa 0,0 l/m² 0,0 km/h 0 min 0,0 UV-I 0 W/m² 13,3 °C 100 %
16.10.2019 18:40 13,7 °C 75 % 1016,9 hPa 0,0 l/m² 0,0 km/h 0 min 0,0 UV-I 0 W/m² 13,7 °C 100 %
16.10.2019 18:30 14,2 °C 73 % 1016,9 hPa 0,0 l/m² 0,0 km/h 0 min 0,0 UV-I 0 W/m² 14,2 °C 100 %
16.10.2019 18:20 14,7 °C 72 % 1016,8 hPa 0,0 l/m² 0,0 km/h 0 min 0,0 UV-I 4 W/m² 14,7 °C 100 %
16.10.2019 18:10 15,3 °C 66 % 1016,9 hPa 0,0 l/m² 0,0 km/h 0 min 0,0 UV-I 9 W/m² 15,3 °C 100 %
16.10.2019 18:00 15,7 °C 64 % 1016,9 hPa 0,0 l/m² 0,0 km/h 0 min 0,0 UV-I 13 W/m² 15,7 °C 100 %
16.10.2019 17:50 16,0 °C 62 % 1016,9 hPa 0,0 l/m² 0,0 km/h 0 min 0,0 UV-I 17 W/m² 16,0 °C 100 %
16.10.2019 17:40 16,2 °C 61 % 1016,9 hPa 0,0 l/m² 0,0 km/h 0 min 0,0 UV-I 20 W/m² 16,2 °C 100 %
16.10.2019 17:30 16,4 °C 58 % 1016,9 hPa 0,0 l/m² 0,0 km/h 0 min 0,0 UV-I 23 W/m² 16,4 °C 100 %
16.10.2019 17:20 16,6 °C 57 % 1016,9 hPa 0,0 l/m² 0,0 km/h 0 min 0,0 UV-I 26 W/m² 16,6 °C 100 %
16.10.2019 17:10 16,8 °C 55 % 1017,0 hPa 0,0 l/m² 0,2 km/h 0 min 0,0 UV-I 28 W/m² 16,8 °C 100 %
16.10.2019 17:00 17,1 °C 54 % 1016,9 hPa 0,0 l/m² 0,4 km/h 0 min 0,0 UV-I 30 W/m² 17,1 °C 100 %
16.10.2019 16:50 17,3 °C 51 % 1016,8 hPa 0,0 l/m² 0,4 km/h 0 min 0,0 UV-I 32 W/m² 17,3 °C 100 %
16.10.2019 16:40 17,4 °C 51 % 1016,9 hPa 0,0 l/m² 0,9 km/h 10 min 0,5 UV-I 162 W/m² 17,4 °C 100 %
16.10.2019 16:30 17,4 °C 51 % 1017,0 hPa 0,0 l/m² 1,1 km/h 10 min 0,7 UV-I 242 W/m² 17,4 °C 100 %
16.10.2019 16:20 17,6 °C 52 % 1017,0 hPa 0,0 l/m² 1,2 km/h 10 min 0,9 UV-I 266 W/m² 17,6 °C 100 %
16.10.2019 16:10 17,7 °C 51 % 1017,0 hPa 0,0 l/m² 1,3 km/h 10 min 1,0 UV-I 296 W/m² 17,7 °C 100 %
16.10.2019 16:00 17,9 °C 50 % 1017,1 hPa 0,0 l/m² 2,3 km/h 10 min 1,1 UV-I 354 W/m² 17,9 °C 100 %
16.10.2019 15:50 17,4 °C 52 % 1017,2 hPa 0,0 l/m² 0,4 km/h 10 min 1,2 UV-I 379 W/m² 17,4 °C 99 %
16.10.2019 15:40 17,0 °C 54 % 1017,2 hPa 0,0 l/m² 3,2 km/h 10 min 1,3 UV-I 440 W/m² 17,0 °C 100 %
16.10.2019 15:30 16,8 °C 53 % 1017,3 hPa 0,0 l/m² 3,2 km/h 10 min 1,4 UV-I 443 W/m² 16,8 °C 100 %
16.10.2019 15:20 16,6 °C 55 % 1017,3 hPa 0,0 l/m² 3,2 km/h 10 min 1,6 UV-I 443 W/m² 16,6 °C 100 %
16.10.2019 15:10 16,7 °C 57 % 1017,3 hPa 0,0 l/m² 3,5 km/h 10 min 1,6 UV-I 373 W/m² 16,7 °C 100 %
16.10.2019 15:00 17,1 °C 57 % 1017,4 hPa 0,0 l/m² 1,1 km/h 10 min 1,8 UV-I 451 W/m² 17,1 °C 100 %
16.10.2019 14:50 16,8 °C 55 % 1017,5 hPa 0,0 l/m² 1,6 km/h 10 min 2,0 UV-I 475 W/m² 16,8 °C 100 %
16.10.2019 14:40 16,7 °C 58 % 1017,5 hPa 0,0 l/m² 0,7 km/h 10 min 1,8 UV-I 344 W/m² 16,7 °C 100 %
16.10.2019 14:30 17,1 °C 55 % 1017,5 hPa 0,0 l/m² 2,1 km/h 10 min 2,2 UV-I 474 W/m² 17,1 °C 100 %
16.10.2019 14:20 16,7 °C 57 % 1017,6 hPa 0,0 l/m² 1,9 km/h 10 min 2,1 UV-I 296 W/m² 16,7 °C 100 %
16.10.2019 14:10 16,8 °C 59 % 1017,7 hPa 0,0 l/m² 1,2 km/h 10 min 2,3 UV-I 516 W/m² 16,8 °C 98 %
16.10.2019 14:00 16,1 °C 63 % 1017,7 hPa 0,0 l/m² 2,5 km/h 10 min 2,5 UV-I 587 W/m² 16,1 °C 100 %
16.10.2019 13:50 15,7 °C 65 % 1017,8 hPa 0,0 l/m² 4,8 km/h 10 min 2,5 UV-I 525 W/m² 15,7 °C 100 %
16.10.2019 13:40 16,0 °C 64 % 1017,8 hPa 0,0 l/m² 4,6 km/h 10 min 2,5 UV-I 666 W/m² 16,0 °C 100 %
16.10.2019 13:30 15,8 °C 64 % 1017,9 hPa 0,0 l/m² 3,5 km/h 10 min 2,1 UV-I 396 W/m² 15,8 °C 100 %
16.10.2019 13:20 15,6 °C 66 % 1017,8 hPa 0,0 l/m² 5,4 km/h 10 min 2,5 UV-I 601 W/m² 15,6 °C 100 %
16.10.2019 13:10 14,9 °C 65 % 1017,9 hPa 0,0 l/m² 2,2 km/h 10 min 2,0 UV-I 247 W/m² 14,9 °C 99 %
16.10.2019 13:00 15,0 °C 65 % 1017,9 hPa 0,0 l/m² 3,1 km/h 10 min 2,0 UV-I 303 W/m² 15,0 °C 100 %
16.10.2019 12:50 15,2 °C 67 % 1018,0 hPa 0,0 l/m² 3,0 km/h 10 min 2,3 UV-I 457 W/m² 15,2 °C 100 %
16.10.2019 12:40 15,3 °C 64 % 1018,1 hPa 0,0 l/m² 3,0 km/h 10 min 2,3 UV-I 238 W/m² 15,3 °C 100 %
16.10.2019 12:30 15,7 °C 65 % 1018,2 hPa 0,0 l/m² 2,6 km/h 10 min 2,4 UV-I 503 W/m² 15,7 °C 99 %
16.10.2019 12:20 15,3 °C 68 % 1018,2 hPa 0,0 l/m² 2,1 km/h 10 min 2,5 UV-I 410 W/m² 15,3 °C 100 %
16.10.2019 12:10 15,2 °C 68 % 1018,2 hPa 0,0 l/m² 2,9 km/h 10 min 2,6 UV-I 445 W/m² 15,2 °C 100 %
16.10.2019 12:00 14,8 °C 70 % 1018,2 hPa 0,0 l/m² 3,2 km/h 10 min 2,5 UV-I 491 W/m² 14,8 °C 100 %
_ Min-Zeit 07:10 16:00 18:20 - 11:00 - - - 07:10 01:50
Minimum _ 3,9 °C 50 % 1016,8 hPa - 0,0 km/h - - - 3,9 °C 91 %
_ Max-Zeit 16:00 10:00 10:50 07:50 13:20 11:00 12:10 13:40 16:00 11:00
Maximum _ 17,9 °C 97 % 1019,1 hPa 0,2 l/m² 5,4 km/h
N
10 min 2,6 UV-I 666 W/m² 17,9 °C 100 %
Durchschnitt _ 9,7 °C 82 % 1017,6 hPa #0,2 l/m² 0,7 km/h #1:50 h 1,1 UV-I 49 W/m² 9,7 °C 100 %